Time;durP1;ratioP1;P1;durP2;ratioP2;P2;SDS_P1;SDS_P2;PMS_P1;PMS_P2;Temp;Humidity;BMP_temperature;BMP_pressure;BME280_temperature;BME280_humidity;BME280_pressure;Samples;Min_cycle;Max_cycle;Signal;HPM_P1;HPM_P2
2023/08/30 00:01:26;;;;;;;44.93;29.50;;;19.20;99.90;;;;;;6184969;23;20239;-79
2023/08/30 00:03:54;;;;;;;44.70;29.63;;;19.20;99.90;;;;;;6159240;23;20172;-79
2023/08/30 00:06:22;;;;;;;45.00;29.43;;;19.20;99.90;;;;;;6185331;23;20190;-80
2023/08/30 00:08:51;;;;;;;48.47;30.53;;;19.10;99.90;;;;;;6185176;23;20548;-80
2023/08/30 00:11:19;;;;;;;47.50;29.70;;;19.10;99.90;;;;;;6158553;23;20168;-79
2023/08/30 00:13:47;;;;;;;46.47;28.87;;;19.00;99.90;;;;;;6185544;23;20167;-80
2023/08/30 00:16:19;;;;;;;48.87;29.20;;;19.00;99.90;;;;;;6159100;23;20607;-79
2023/08/30 00:18:49;;;;;;;48.77;29.60;;;19.00;99.90;;;;;;6184939;23;20172;-79
2023/08/30 00:21:17;;;;;;;46.93;30.23;;;19.00;99.90;;;;;;6159088;23;20188;-80
2023/08/30 00:23:45;;;;;;;49.00;31.00;;;18.90;99.90;;;;;;6159006;23;20600;-78
2023/08/30 00:26:17;;;;;;;49.60;30.53;;;18.90;99.90;;;;;;6185341;23;20172;-79
2023/08/30 00:28:48;;;;;;;46.87;29.07;;;18.80;99.90;;;;;;6158572;23;20171;-79
2023/08/30 00:31:24;;;;;;;50.97;30.87;;;18.90;99.90;;;;;;6160049;23;20190;-83
2023/08/30 00:33:52;;;;;;;47.63;30.43;;;18.90;99.90;;;;;;6184899;23;20164;-82
2023/08/30 00:36:22;;;;;;;49.90;30.77;;;18.90;99.90;;;;;;6184643;23;20179;-83
2023/08/30 00:38:49;;;;;;;56.73;32.50;;;18.90;99.90;;;;;;6184916;23;20210;-83
2023/08/30 00:41:17;;;;;;;57.80;32.20;;;18.90;99.90;;;;;;6184877;23;20187;-83
2023/08/30 00:43:56;;;;;;;55.57;32.10;;;18.80;99.90;;;;;;6184521;23;20168;-83
2023/08/30 00:46:25;;;;;;;55.40;30.77;;;18.80;99.90;;;;;;6158961;23;20189;-82
2023/08/30 00:48:54;;;;;;;52.67;31.07;;;18.80;99.90;;;;;;6184831;23;20164;-83
2023/08/30 00:51:22;;;;;;;54.60;30.97;;;18.80;99.90;;;;;;6134254;23;20198;-83
2023/08/30 00:53:50;;;;;;;55.40;31.90;;;18.90;99.90;;;;;;6184760;23;20160;-83
2023/08/30 00:56:19;;;;;;;60.13;33.23;;;18.80;99.90;;;;;;6184987;23;20222;-80
2023/08/30 00:58:57;;;;;;;62.07;34.20;;;18.80;99.90;;;;;;6184704;23;20593;-80
2023/08/30 01:01:31;;;;;;;63.43;35.13;;;18.70;99.90;;;;;;6134250;23;20172;-81
2023/08/30 01:04:00;;;;;;;69.90;35.87;;;18.80;99.90;;;;;;6159340;23;20231;-80
2023/08/30 01:06:32;;;;;;;74.27;37.53;;;18.70;99.90;;;;;;6158981;23;20242;-81
2023/08/30 01:09:03;;;;;;;74.70;37.10;;;18.80;99.90;;;;;;6159810;23;20152;-80
2023/08/30 01:12:02;;;;;;;76.70;38.00;;;18.80;99.90;;;;;;6158753;23;20255;-81
2023/08/30 01:14:52;;;;;;;79.00;38.73;;;18.70;99.90;;;;;;6150220;23;20229;-80
2023/08/30 01:17:22;;;;;;;77.87;38.73;;;18.70;99.90;;;;;;6134035;23;20224;-79
2023/08/30 01:20:22;;;;;;;76.27;38.83;;;18.60;99.90;;;;;;6134756;23;20622;-81
2023/08/30 01:23:10;;;;;;;70.23;36.90;;;18.60;99.90;;;;;;6158351;23;20587;-80
2023/08/30 01:25:46;;;;;;;70.07;36.07;;;18.80;99.90;;;;;;6134103;23;20368;-78
2023/08/30 01:28:21;;;;;;;61.80;35.80;;;18.70;99.90;;;;;;6158737;23;20167;-81
2023/08/30 01:30:54;;;;;;;59.30;34.43;;;18.70;99.90;;;;;;6158432;23;20230;-81
2023/08/30 01:33:23;;;;;;;54.13;33.10;;;18.70;99.90;;;;;;6158031;23;20250;-80
2023/08/30 01:35:59;;;;;;;53.43;32.60;;;18.70;99.90;;;;;;6158325;23;20195;-80
2023/08/30 01:38:43;;;;;;;55.13;33.47;;;18.70;99.90;;;;;;6184193;23;20175;-81
2023/08/30 01:41:20;;;;;;;48.93;30.30;;;18.70;99.90;;;;;;6183834;23;20217;-80
2023/08/30 01:43:59;;;;;;;47.23;30.10;;;18.70;99.90;;;;;;6159400;23;20176;-81
2023/08/30 01:46:28;;;;;;;45.73;29.20;;;18.70;99.90;;;;;;6184730;23;20167;-80
2023/08/30 01:49:09;;;;;;;45.60;28.07;;;18.70;99.90;;;;;;6184247;23;20241;-80
2023/08/30 01:51:39;;;;;;;44.47;27.63;;;18.60;99.90;;;;;;6158041;23;20278;-78
2023/08/30 01:54:11;;;;;;;46.67;27.20;;;18.60;99.90;;;;;;6184268;23;20194;-80
2023/08/30 01:56:45;;;;;;;47.93;27.50;;;18.70;99.90;;;;;;6184414;23;20219;-79
2023/08/30 01:59:16;;;;;;;45.03;28.47;;;18.60;99.90;;;;;;6158285;23;20233;-80
2023/08/30 02:01:47;;;;;;;47.87;29.10;;;18.50;99.90;;;;;;6184519;23;20159;-80
2023/08/30 02:04:18;;;;;;;45.73;28.33;;;18.60;99.90;;;;;;6133952;23;20171;-82
2023/08/30 02:07:07;;;;;;;47.17;29.00;;;18.50;99.90;;;;;;6158420;23;20405;-80
2023/08/30 02:10:06;;;;;;;44.97;27.47;;;18.50;99.90;;;;;;6157360;23;20214;-79
2023/08/30 02:12:54;;;;;;;47.67;28.40;;;18.50;99.90;;;;;;6133572;23;20196;-80
2023/08/30 02:15:29;;;;;;;47.40;28.53;;;18.50;99.90;;;;;;6132460;23;20254;-81
2023/08/30 02:18:05;;;;;;;45.57;27.80;;;18.40;99.90;;;;;;6184266;23;20164;-80
2023/08/30 02:20:35;;;;;;;41.83;26.20;;;18.50;99.90;;;;;;6133632;23;20611;-80
2023/08/30 02:23:06;;;;;;;45.20;27.40;;;18.50;99.90;;;;;;6184303;23;20168;-80
2023/08/30 02:25:49;;;;;;;39.83;25.37;;;18.50;99.90;;;;;;6184018;23;20152;-81
2023/08/30 02:28:23;;;;;;;44.03;27.10;;;18.40;99.90;;;;;;6183916;23;20250;-80
2023/08/30 02:31:00;;;;;;;44.63;26.87;;;18.40;99.90;;;;;;6157418;23;20255;-82
2023/08/30 02:33:33;;;;;;;41.17;25.93;;;18.40;99.90;;;;;;6133387;23;20250;-81
2023/08/30 02:36:13;;;;;;;43.00;25.67;;;18.40;99.90;;;;;;6135518;23;20187;-81
2023/08/30 02:38:42;;;;;;;40.37;25.63;;;18.30;99.90;;;;;;6183582;23;20167;-80
2023/08/30 02:41:16;;;;;;;39.53;25.13;;;18.20;99.90;;;;;;6039543;23;20178;-81
2023/08/30 02:43:55;;;;;;;40.47;24.30;;;18.40;99.90;;;;;;6063621;23;20193;-81
2023/08/30 02:46:37;;;;;;;53.90;25.67;;;18.30;99.90;;;;;;6063730;23;20206;-81
2023/08/30 02:49:07;;;;;;;43.87;25.63;;;18.20;99.90;;;;;;6039974;23;20174;-79
2023/08/30 02:51:36;;;;;;;39.60;24.37;;;18.00;99.90;;;;;;6063692;23;20222;-81
2023/08/30 02:54:06;;;;;;;40.30;24.77;;;17.90;99.90;;;;;;6063788;23;20270;-80
2023/08/30 02:56:35;;;;;;;38.77;24.47;;;17.90;99.90;;;;;;6016364;23;20181;-81
2023/08/30 02:59:08;;;;;;;41.47;24.70;;;18.10;99.90;;;;;;6040346;23;20221;-80
2023/08/30 03:01:37;;;;;;;40.10;24.97;;;18.10;99.90;;;;;;6063352;23;20201;-81
2023/08/30 03:04:06;;;;;;;38.93;23.83;;;18.20;99.90;;;;;;6039750;23;20184;-81
2023/08/30 03:06:35;;;;;;;39.53;24.20;;;18.20;99.90;;;;;;6160232;23;20187;-80
2023/08/30 03:09:05;;;;;;;38.10;23.00;;;18.20;99.90;;;;;;6182342;23;20172;-80
2023/08/30 03:11:33;;;;;;;37.93;23.47;;;18.20;99.90;;;;;;6157039;23;20203;-80
2023/08/30 03:14:05;;;;;;;38.27;23.73;;;18.20;99.90;;;;;;6183309;23;20191;-80
2023/08/30 03:16:36;;;;;;;37.83;24.17;;;18.10;99.90;;;;;;6133591;23;20251;-80
2023/08/30 03:19:04;;;;;;;35.90;22.90;;;18.00;99.90;;;;;;6183766;23;20172;-80
2023/08/30 03:21:36;;;;;;;38.63;22.37;;;18.10;99.90;;;;;;6157554;23;20196;-80
2023/08/30 03:24:06;;;;;;;39.90;25.20;;;18.10;99.90;;;;;;6158118;23;20233;-80
2023/08/30 03:26:34;;;;;;;42.53;24.70;;;18.00;99.90;;;;;;6157696;23;20612;-80
2023/08/30 03:29:02;;;;;;;40.27;25.33;;;17.90;99.90;;;;;;6132924;23;20179;-80
2023/08/30 03:31:30;;;;;;;39.13;24.17;;;17.80;99.90;;;;;;6184076;23;20191;-80
2023/08/30 03:33:58;;;;;;;41.60;24.63;;;17.80;99.90;;;;;;6134845;23;20199;-80
2023/08/30 03:36:32;;;;;;;44.77;25.90;;;17.90;99.90;;;;;;6184946;23;20191;-79
2023/08/30 03:39:04;;;;;;;41.43;24.87;;;17.80;99.90;;;;;;6158750;23;20186;-80
2023/08/30 03:41:32;;;;;;;45.37;26.23;;;17.80;99.90;;;;;;6159885;23;20259;-80
2023/08/30 03:44:05;;;;;;;43.03;25.37;;;17.80;99.90;;;;;;6160289;23;20168;-79
2023/08/30 03:46:33;;;;;;;39.73;24.10;;;17.80;99.90;;;;;;6184853;23;20250;-80
2023/08/30 03:49:03;;;;;;;43.63;25.17;;;17.80;99.90;;;;;;6134616;23;20172;-80
2023/08/30 03:51:34;;;;;;;42.57;25.17;;;17.80;99.90;;;;;;6158862;23;20200;-80
2023/08/30 03:54:02;;;;;;;41.13;24.67;;;17.80;99.90;;;;;;6158624;23;20278;-79
2023/08/30 03:56:32;;;;;;;41.00;24.13;;;17.80;99.90;;;;;;6159472;23;20171;-80
2023/08/30 03:59:01;;;;;;;46.63;25.77;;;17.80;99.90;;;;;;6133738;23;20648;-80
2023/08/30 04:01:31;;;;;;;43.47;24.90;;;17.80;99.90;;;;;;6134700;23;20199;-80
2023/08/30 04:04:08;;;;;;;43.73;25.43;;;17.70;99.90;;;;;;6134549;23;20168;-80
2023/08/30 04:06:36;;;;;;;41.73;25.00;;;17.80;99.90;;;;;;6159652;23;20183;-80
2023/08/30 04:09:07;;;;;;;40.40;24.87;;;17.80;99.90;;;;;;6185108;23;20152;-80
2023/08/30 04:11:35;;;;;;;42.33;24.43;;;17.80;99.90;;;;;;6185349;23;20168;-80
2023/08/30 04:14:03;;;;;;;39.33;23.80;;;17.80;99.90;;;;;;6159184;23;20191;-79
2023/08/30 04:16:35;;;;;;;40.27;24.00;;;17.90;99.90;;;;;;6158866;23;20163;-80
2023/08/30 04:19:19;;;;;;;39.67;24.73;;;17.80;99.90;;;;;;6135965;23;20202;-82
2023/08/30 04:22:10;;;;;;;44.27;25.30;;;18.00;99.90;;;;;;6132944;23;20229;-82
2023/08/30 04:24:49;;;;;;;44.47;25.63;;;18.00;99.90;;;;;;6157567;23;20179;-82
2023/08/30 04:27:31;;;;;;;46.67;26.03;;;17.80;99.90;;;;;;6137111;23;20195;-82
2023/08/30 04:30:37;;;;;;;44.33;25.63;;;17.80;99.90;;;;;;6163283;23;20176;-82
2023/08/30 04:34:30;;;;;;;;;;;;;;;;;;;;;
2023/08/30 04:37:09;;;;;;;41.27;24.27;;;17.80;99.90;;;;;;6157706;23;20215;-82
2023/08/30 04:40:11;;;;;;;38.77;23.80;;;17.80;99.90;;;;;;6138045;23;20233;-83
2023/08/30 04:42:54;;;;;;;38.30;23.77;;;17.90;99.90;;;;;;6157797;23;20179;-83
2023/08/30 04:45:44;;;;;;;41.37;24.33;;;18.00;99.90;;;;;;6135602;23;20262;-83
2023/08/30 04:52:42;;;;;;;40.90;22.37;;;17.90;99.90;;;;;;6063039;23;20202;-82
2023/08/30 04:55:42;;;;;;;42.83;23.90;;;18.00;99.90;;;;;;5990940;23;20183;-83
2023/08/30 04:59:04;;;;;;;;;;;;;;;;;;;;;
2023/08/30 05:02:44;;;;;;;36.93;22.27;;;17.70;99.90;;;;;;5837596;24;20195;-83
2023/08/30 05:10:29;;;;;;;37.33;21.03;;;17.90;99.90;;;;;;6093962;23;20165;-85
2023/08/30 05:13:35;;;;;;;35.53;21.90;;;18.00;99.90;;;;;;6105254;23;20201;-82
2023/08/30 05:16:10;;;;;;;37.87;21.57;;;18.10;99.90;;;;;;6097587;23;20172;-83
2023/08/30 05:18:42;;;;;;;31.60;19.70;;;18.00;99.90;;;;;;6122045;23;20161;-83
2023/08/30 05:21:25;;;;;;;;;;;;;;;;;;;;;
2023/08/30 05:24:15;;;;;;;27.53;18.00;;;18.20;99.90;;;;;;6122030;23;20183;-83
2023/08/30 05:27:03;;;;;;;27.43;17.23;;;18.40;99.90;;;;;;6097269;23;20181;-82
2023/08/30 05:29:33;;;;;;;31.07;18.03;;;18.60;99.90;;;;;;6074338;23;20192;-83
2023/08/30 05:32:22;;;;;;;27.57;15.87;;;18.60;99.90;;;;;;6121918;23;20160;-83
2023/08/30 05:34:58;;;;;;;24.27;15.03;;;18.40;99.90;;;;;;6074597;23;20165;-83
2023/08/30 05:37:27;;;;;;;20.03;13.40;;;18.50;99.90;;;;;;6073436;23;20560;-84
2023/08/30 05:40:07;;;;;;;22.50;14.00;;;18.40;99.90;;;;;;6097344;23;20173;-82
2023/08/30 05:42:46;;;;;;;20.53;13.30;;;18.50;99.90;;;;;;6121579;23;20188;-83
2023/08/30 05:45:27;;;;;;;22.97;13.80;;;18.50;99.90;;;;;;6114914;23;20174;-82
2023/08/30 05:48:54;;;;;;;;;;;;;;;;;;;;;
2023/08/30 06:03:01;;;;;;;22.93;14.43;;;18.60;99.90;;;;;;6182777;23;20203;-81
2023/08/30 06:05:30;;;;;;;19.23;13.40;;;18.50;99.90;;;;;;6176219;23;20184;-81
2023/08/30 06:08:03;;;;;;;21.30;13.97;;;18.50;99.90;;;;;;6104423;23;20658;-81
2023/08/30 06:10:59;;;;;;;24.23;14.63;;;18.60;99.90;;;;;;6104782;23;20176;-83
2023/08/30 06:14:49;;;;;;;24.93;15.00;;;18.60;99.90;;;;;;6108429;23;20207;-82
2023/08/30 06:26:19;;;;;;;22.17;14.37;;;18.60;99.90;;;;;;6119730;23;20212;-85
2023/08/30 06:28:52;;;;;;;23.10;14.33;;;18.60;99.90;;;;;;6003920;23;20628;-84
2023/08/30 06:31:28;;;;;;;25.97;15.70;;;18.60;99.90;;;;;;6002609;23;20187;-81
2023/08/30 06:34:00;;;;;;;26.27;15.27;;;18.40;99.90;;;;;;5983104;23;20199;-82
2023/08/30 06:36:29;;;;;;;26.60;15.93;;;18.60;99.90;;;;;;5982206;23;20232;-86
2023/08/30 06:38:58;;;;;;;23.27;14.60;;;18.50;99.90;;;;;;5982344;23;20175;-86
2023/08/30 06:41:26;;;;;;;25.20;14.97;;;18.50;99.90;;;;;;5983060;23;20182;-87
2023/08/30 06:43:57;;;;;;;25.47;15.33;;;18.50;99.90;;;;;;6006916;23;20519;-86
2023/08/30 06:46:27;;;;;;;24.50;15.40;;;18.60;99.90;;;;;;5959921;23;20262;-85
2023/08/30 06:48:59;;;;;;;24.33;15.53;;;18.60;99.90;;;;;;5983828;23;20176;-85
2023/08/30 06:51:28;;;;;;;22.93;14.60;;;18.60;99.90;;;;;;6006174;23;20208;-85
2023/08/30 06:54:00;;;;;;;25.57;16.10;;;18.80;99.90;;;;;;6006184;23;20195;-85
2023/08/30 06:56:31;;;;;;;26.57;15.80;;;18.60;99.90;;;;;;6006035;23;20171;-80
2023/08/30 06:59:00;;;;;;;24.67;14.93;;;18.40;99.90;;;;;;6006332;23;20211;-80
2023/08/30 07:01:30;;;;;;;25.03;15.60;;;18.60;99.90;;;;;;6012339;23;20210;-80
2023/08/30 07:04:03;;;;;;;25.93;15.90;;;18.70;99.90;;;;;;6012328;23;20177;-84
2023/08/30 07:06:35;;;;;;;26.43;16.00;;;18.60;99.90;;;;;;6148667;23;20341;-84
2023/08/30 07:09:06;;;;;;;30.30;17.50;;;18.60;99.90;;;;;;6128664;23;20623;-80
2023/08/30 07:11:34;;;;;;;26.83;16.17;;;18.60;99.90;;;;;;6154295;23;20195;-80
2023/08/30 07:14:02;;;;;;;26.03;16.37;;;18.40;99.90;;;;;;6155694;23;20699;-80
2023/08/30 07:16:34;;;;;;;28.53;17.33;;;18.50;99.90;;;;;;6155500;23;20611;-80
2023/08/30 07:19:04;;;;;;;27.03;17.40;;;18.50;99.90;;;;;;6155659;23;20651;-81
2023/08/30 07:21:35;;;;;;;28.90;17.47;;;18.30;99.90;;;;;;6154507;23;20283;-81
2023/08/30 07:24:07;;;;;;;27.93;18.93;;;18.60;99.90;;;;;;6154130;23;20168;-81
2023/08/30 07:26:38;;;;;;;31.33;18.40;;;18.30;99.90;;;;;;6155554;23;20196;-81
2023/08/30 07:29:08;;;;;;;30.00;19.00;;;18.20;99.90;;;;;;6154471;23;20179;-80
2023/08/30 07:31:51;;;;;;;30.73;18.87;;;18.20;99.90;;;;;;6128178;23;20283;-81
2023/08/30 07:34:22;;;;;;;31.40;20.00;;;18.20;99.90;;;;;;6154191;23;20200;-80
2023/08/30 07:37:01;;;;;;;34.27;20.27;;;18.20;99.90;;;;;;6153359;23;20632;-80
2023/08/30 07:42:58;;;;;;;32.40;18.93;;;18.30;99.90;;;;;;6035513;23;20236;-81
2023/08/30 07:45:33;;;;;;;31.27;19.60;;;18.30;99.90;;;;;;6034965;23;20179;-78
2023/08/30 07:48:05;;;;;;;32.63;19.47;;;18.40;99.90;;;;;;6013458;23;20175;-78
2023/08/30 07:50:32;;;;;;;33.00;20.30;;;18.30;99.90;;;;;;6012941;23;20436;-81
2023/08/30 07:53:06;;;;;;;34.73;21.67;;;18.30;99.90;;;;;;6035322;23;20182;-82
2023/08/30 07:55:51;;;;;;;41.07;23.27;;;18.30;99.90;;;;;;6012016;23;20167;-77
2023/08/30 07:58:19;;;;;;;41.20;23.70;;;18.20;99.90;;;;;;6035976;23;20175;-79
2023/08/30 08:00:52;;;;;;;39.97;23.07;;;18.10;99.90;;;;;;6036405;23;20304;-81
2023/08/30 08:03:26;;;;;;;40.40;24.67;;;18.10;99.90;;;;;;6036628;23;20179;-80
2023/08/30 08:05:59;;;;;;;42.00;23.90;;;18.10;99.90;;;;;;6036121;23;20246;-79
2023/08/30 08:08:31;;;;;;;51.40;27.97;;;18.20;99.90;;;;;;6036142;23;20245;-78
2023/08/30 08:10:59;;;;;;;49.10;27.40;;;18.00;99.90;;;;;;6036221;23;20262;-80
2023/08/30 08:13:36;;;;;;;49.30;26.97;;;18.10;99.90;;;;;;6035618;23;20659;-80
2023/08/30 08:16:07;;;;;;;47.03;25.60;;;18.00;99.90;;;;;;6036430;23;20182;-80
2023/08/30 08:18:37;;;;;;;50.67;26.07;;;17.90;99.90;;;;;;6044465;23;20199;-79
2023/08/30 08:21:07;;;;;;;46.97;26.43;;;17.90;99.90;;;;;;6155006;23;20184;-79
2023/08/30 08:23:36;;;;;;;41.93;22.80;;;17.90;99.90;;;;;;6155281;23;20168;-78
2023/08/30 08:26:04;;;;;;;45.23;22.63;;;17.90;99.90;;;;;;6155125;23;20202;-80
2023/08/30 08:28:32;;;;;;;37.03;21.37;;;17.90;99.90;;;;;;6155228;23;20200;-81
2023/08/30 08:31:00;;;;;;;31.77;19.33;;;18.00;99.90;;;;;;6153518;23;20180;-80
2023/08/30 08:33:29;;;;;;;32.73;19.30;;;18.00;99.90;;;;;;6153524;23;20280;-80
2023/08/30 08:36:03;;;;;;;31.17;17.77;;;18.00;99.90;;;;;;6154636;23;20524;-83
2023/08/30 08:38:43;;;;;;;29.07;16.77;;;18.00;99.90;;;;;;6128664;23;20259;-90
2023/08/30 08:41:46;;;;;;;30.10;17.23;;;18.00;99.90;;;;;;6153280;23;20263;-82
2023/08/30 08:44:19;;;;;;;28.33;16.73;;;18.10;99.90;;;;;;6074119;23;20183;-83
2023/08/30 08:46:48;;;;;;;22.47;13.60;;;18.10;99.90;;;;;;6122591;23;20177;-83
2023/08/30 08:49:19;;;;;;;22.47;13.73;;;18.00;99.90;;;;;;6122550;23;20177;-83
2023/08/30 08:51:47;;;;;;;21.23;13.33;;;17.90;99.90;;;;;;6122212;23;20268;-83
2023/08/30 08:54:16;;;;;;;23.53;14.20;;;17.90;99.90;;;;;;6122722;23;20220;-79
2023/08/30 08:56:45;;;;;;;18.97;12.17;;;17.80;99.90;;;;;;6122840;23;20175;-78
2023/08/30 08:59:12;;;;;;;21.13;13.07;;;17.70;99.90;;;;;;6098623;23;20727;-79
2023/08/30 09:01:44;;;;;;;23.50;14.70;;;17.70;99.90;;;;;;6120499;23;20269;-79
2023/08/30 09:04:14;;;;;;;22.43;13.77;;;17.80;99.90;;;;;;6122469;23;20240;-79
2023/08/30 09:06:43;;;;;;;19.90;12.17;;;17.90;99.90;;;;;;6073565;23;20197;-80
2023/08/30 09:09:12;;;;;;;16.97;11.23;;;17.90;99.90;;;;;;6122642;23;20169;-79
2023/08/30 09:11:41;;;;;;;16.93;10.77;;;17.80;99.90;;;;;;6097768;23;20185;-81
2023/08/30 09:14:20;;;;;;;16.00;10.87;;;18.00;99.90;;;;;;6099985;23;20263;-79
2023/08/30 09:17:02;;;;;;;14.97;10.30;;;17.80;99.90;;;;;;6122504;23;20251;-79
2023/08/30 09:19:31;;;;;;;16.73;9.97;;;18.00;99.90;;;;;;6011226;23;20193;-79
2023/08/30 09:22:00;;;;;;;14.70;9.40;;;18.10;99.90;;;;;;6056046;23;20674;-78
2023/08/30 09:24:40;;;;;;;13.37;8.80;;;18.00;99.90;;;;;;6068936;23;20316;-79
2023/08/30 09:27:08;;;;;;;16.80;10.27;;;18.00;99.90;;;;;;6093016;23;20252;-79
2023/08/30 09:29:36;;;;;;;16.53;9.70;;;17.80;99.90;;;;;;6092895;23;20174;-78
2023/08/30 09:32:05;;;;;;;15.20;9.90;;;17.80;99.90;;;;;;6068846;23;20200;-77
2023/08/30 09:34:34;;;;;;;14.27;9.40;;;17.90;99.90;;;;;;6067872;23;20232;-78
2023/08/30 09:37:04;;;;;;;13.80;8.73;;;17.80;99.90;;;;;;6106745;23;20192;-79
2023/08/30 09:39:35;;;;;;;13.97;9.03;;;17.80;99.90;;;;;;6153272;23;20235;-79
2023/08/30 09:42:03;;;;;;;12.03;8.30;;;17.80;99.90;;;;;;6153075;23;20173;-80
2023/08/30 09:44:31;;;;;;;13.00;8.53;;;17.60;99.90;;;;;;6154198;23;20165;-78
2023/08/30 09:47:03;;;;;;;12.20;8.10;;;17.70;99.90;;;;;;6154396;23;20168;-77
2023/08/30 09:49:48;;;;;;;9.77;7.33;;;17.80;99.90;;;;;;6127520;23;20179;-78
2023/08/30 09:52:18;;;;;;;10.27;7.30;;;17.70;99.90;;;;;;6154238;23;20579;-79
2023/08/30 09:54:46;;;;;;;10.03;7.03;;;17.60;99.90;;;;;;6154478;23;20250;-78
2023/08/30 09:57:18;;;;;;;12.07;7.57;;;17.70;99.90;;;;;;6154012;23;20169;-79
2023/08/30 09:59:46;;;;;;;13.57;8.10;;;17.70;99.90;;;;;;6153916;23;20175;-80
2023/08/30 10:02:14;;;;;;;13.13;8.00;;;17.80;99.90;;;;;;6154659;23;20164;-80
2023/08/30 10:04:43;;;;;;;14.87;9.10;;;17.80;99.90;;;;;;6154369;23;20171;-79
2023/08/30 10:07:12;;;;;;;12.50;7.90;;;17.90;99.90;;;;;;6153375;23;20191;-79
2023/08/30 10:09:41;;;;;;;12.73;8.33;;;17.80;99.90;;;;;;6154229;23;20187;-76
2023/08/30 10:12:24;;;;;;;13.00;7.40;;;17.90;99.90;;;;;;6152064;23;20176;-79
2023/08/30 10:14:58;;;;;;;12.07;7.40;;;18.00;99.90;;;;;;6152757;23;20216;-79
2023/08/30 10:17:31;;;;;;;10.60;7.30;;;18.10;99.90;;;;;;6154400;23;20239;-78
2023/08/30 10:20:01;;;;;;;10.37;6.93;;;17.90;99.90;;;;;;6154817;23;20168;-79
2023/08/30 10:22:29;;;;;;;10.13;7.40;;;17.90;99.90;;;;;;6152908;23;20211;-78
2023/08/30 10:25:12;;;;;;;8.87;6.27;;;17.90;99.90;;;;;;6152325;23;20228;-78
2023/08/30 10:27:45;;;;;;;8.23;5.53;;;17.80;99.90;;;;;;6154780;23;20172;-77
2023/08/30 10:30:13;;;;;;;8.33;5.87;;;17.80;99.90;;;;;;6153866;23;20172;-76
2023/08/30 10:32:45;;;;;;;18.30;12.50;;;17.80;99.90;;;;;;6152011;23;20195;-77
2023/08/30 10:35:14;;;;;;;15.33;10.03;;;17.90;99.90;;;;;;6152521;23;20212;-77
2023/08/30 10:38:00;;;;;;;8.07;6.10;;;18.00;99.90;;;;;;6154233;23;20164;-78
2023/08/30 10:40:28;;;;;;;7.77;5.77;;;18.10;99.90;;;;;;6154052;23;20251;-77
2023/08/30 10:43:06;;;;;;;9.20;6.00;;;18.00;99.90;;;;;;6128662;23;20172;-79
2023/08/30 10:45:41;;;;;;;9.47;6.40;;;17.90;99.90;;;;;;6153814;23;20585;-77
2023/08/30 10:48:12;;;;;;;9.50;6.40;;;18.00;99.90;;;;;;6154450;23;20188;-80
2023/08/30 10:50:44;;;;;;;8.73;6.70;;;18.00;99.90;;;;;;6153850;23;20179;-78
2023/08/30 10:53:29;;;;;;;9.97;6.70;;;18.00;99.90;;;;;;6154122;23;20161;-78
2023/08/30 10:56:08;;;;;;;13.67;7.00;;;18.00;99.90;;;;;;6153160;23;20188;-77
2023/08/30 10:58:44;;;;;;;10.03;6.37;;;18.10;99.90;;;;;;6153727;23;20247;-78
2023/08/30 11:01:17;;;;;;;11.23;7.10;;;18.10;99.90;;;;;;6153866;23;20164;-78
2023/08/30 11:04:03;;;;;;;12.70;7.87;;;18.10;99.90;;;;;;5030000;28;20508;-80
2023/08/30 11:06:47;;;;;;;11.83;7.60;;;18.10;99.90;;;;;;5009310;28;20219;-78
2023/08/30 11:09:19;;;;;;;11.77;7.50;;;18.20;99.90;;;;;;4991637;28;20300;-79
2023/08/30 11:11:51;;;;;;;14.20;8.70;;;18.10;99.90;;;;;;5008943;28;20619;-80
2023/08/30 11:14:19;;;;;;;13.00;8.50;;;18.20;99.90;;;;;;4991934;28;20616;-79
2023/08/30 11:16:48;;;;;;;12.73;8.43;;;18.30;99.90;;;;;;4991827;28;20188;-79
2023/08/30 11:19:20;;;;;;;12.23;8.00;;;18.20;99.90;;;;;;4991559;28;20262;-79
2023/08/30 11:21:53;;;;;;;11.53;8.37;;;18.00;99.90;;;;;;4991705;28;20220;-80
2023/08/30 11:24:23;;;;;;;13.67;8.40;;;18.10;99.90;;;;;;4992054;28;20192;-79
2023/08/30 11:27:00;;;;;;;13.00;8.70;;;18.30;99.90;;;;;;4991390;28;20297;-79
2023/08/30 11:29:28;;;;;;;12.67;8.33;;;18.20;99.90;;;;;;5008494;28;20699;-80
2023/08/30 11:31:57;;;;;;;11.03;7.77;;;18.20;99.90;;;;;;4990921;28;20192;-80
2023/08/30 11:34:25;;;;;;;12.63;8.47;;;18.00;99.90;;;;;;4991143;28;20269;-81
2023/08/30 11:36:59;;;;;;;10.77;7.37;;;18.00;99.90;;;;;;4991243;28;20262;-79
2023/08/30 11:39:31;;;;;;;12.13;8.50;;;18.10;99.90;;;;;;4975500;28;20209;-80
2023/08/30 11:42:06;;;;;;;10.50;7.43;;;18.20;99.90;;;;;;4975310;28;20212;-79
2023/08/30 11:44:51;;;;;;;11.57;7.40;;;18.20;99.90;;;;;;4993291;28;20180;-80
2023/08/30 11:47:23;;;;;;;9.97;7.07;;;18.30;99.90;;;;;;4991684;28;20308;-80
2023/08/30 11:49:55;;;;;;;11.43;7.90;;;18.30;99.90;;;;;;4991527;28;20180;-79
2023/08/30 11:52:26;;;;;;;19.37;9.40;;;18.20;99.90;;;;;;4990413;28;20188;-78
2023/08/30 11:54:55;;;;;;;8.40;6.57;;;18.30;99.90;;;;;;5008289;28;20195;-77
2023/08/30 11:57:27;;;;;;;8.00;5.93;;;18.20;99.90;;;;;;4990929;28;20545;-79
2023/08/30 12:00:10;;;;;;;7.67;5.10;;;18.20;99.90;;;;;;4990303;28;20196;-78
2023/08/30 12:02:39;;;;;;;6.57;5.23;;;18.10;99.90;;;;;;5007691;28;20229;-80
2023/08/30 12:05:12;;;;;;;7.90;5.57;;;18.00;99.90;;;;;;5008133;28;20694;-81
2023/08/30 12:07:40;;;;;;;5.70;4.13;;;17.80;99.90;;;;;;5008144;28;20227;-80
2023/08/30 12:10:12;;;;;;;7.23;4.60;;;17.80;99.90;;;;;;5008041;28;20192;-79
2023/08/30 12:12:45;;;;;;;8.07;4.90;;;17.70;99.90;;;;;;4990566;28;20299;-80
2023/08/30 12:15:16;;;;;;;7.47;4.87;;;17.80;99.90;;;;;;4978650;28;20227;-86
2023/08/30 12:17:44;;;;;;;6.40;5.17;;;17.90;99.90;;;;;;4958108;28;20637;-79
2023/08/30 12:20:23;;;;;;;6.67;4.80;;;18.10;99.90;;;;;;4974841;28;20213;-79
2023/08/30 12:22:53;;;;;;;8.23;5.93;;;18.20;99.90;;;;;;4975428;28;20676;-79
2023/08/30 12:25:22;;;;;;;7.13;5.33;;;18.20;99.90;;;;;;4958628;28;20200;-78
2023/08/30 12:27:54;;;;;;;8.77;6.40;;;18.20;99.90;;;;;;4957769;28;20594;-78
2023/08/30 12:30:23;;;;;;;9.47;6.67;;;18.20;99.90;;;;;;4974111;28;20849;-78
2023/08/30 12:33:02;;;;;;;9.40;6.77;;;18.10;99.90;;;;;;4974899;28;20197;-80
2023/08/30 12:35:38;;;;;;;10.40;6.90;;;18.20;99.90;;;;;;4958827;28;20304;-80
2023/08/30 12:38:06;;;;;;;11.83;7.37;;;18.20;99.90;;;;;;4957281;28;20638;-80
2023/08/30 12:40:35;;;;;;;9.13;6.77;;;18.10;99.90;;;;;;4957006;28;20201;-80
2023/08/30 12:43:21;;;;;;;12.70;8.10;;;18.20;99.90;;;;;;4975481;28;20555;-80
2023/08/30 12:46:04;;;;;;;13.00;8.37;;;18.10;99.90;;;;;;4958125;28;20305;-79
2023/08/30 12:48:34;;;;;;;13.33;8.10;;;18.10;99.90;;;;;;4942031;28;20559;-77
2023/08/30 12:51:05;;;;;;;13.43;8.53;;;18.00;99.90;;;;;;4974693;28;20703;-78
2023/08/30 12:53:35;;;;;;;14.40;8.93;;;18.00;99.90;;;;;;4957435;28;20452;-78
2023/08/30 12:56:04;;;;;;;13.37;7.97;;;17.90;99.90;;;;;;4957355;28;20194;-78
2023/08/30 12:58:38;;;;;;;14.10;8.53;;;17.90;99.90;;;;;;4957372;28;20225;-78
2023/08/30 13:01:06;;;;;;;13.67;8.70;;;18.00;99.90;;;;;;4957366;28;20194;-77
2023/08/30 13:03:34;;;;;;;14.33;8.87;;;18.10;99.90;;;;;;4953408;29;20292;-78
2023/08/30 13:06:04;;;;;;;11.23;7.03;;;18.20;99.90;;;;;;4955282;29;20234;-78
2023/08/30 13:08:31;;;;;;;12.07;7.30;;;18.10;99.90;;;;;;4955459;29;20194;-78
2023/08/30 13:11:01;;;;;;;11.40;7.63;;;18.20;99.90;;;;;;4953762;29;20190;-77
2023/08/30 13:13:35;;;;;;;13.20;7.77;;;18.10;99.90;;;;;;4955390;28;20195;-79
2023/08/30 13:16:05;;;;;;;11.80;7.00;;;18.20;99.90;;;;;;4954896;29;20202;-77
2023/08/30 13:18:33;;;;;;;11.47;7.13;;;18.20;99.90;;;;;;4955066;28;20276;-77
2023/08/30 13:21:04;;;;;;;12.87;7.57;;;18.20;99.90;;;;;;4937710;29;20702;-78
2023/08/30 13:23:35;;;;;;;10.93;6.47;;;18.30;99.90;;;;;;4937682;29;20226;-79
2023/08/30 13:26:06;;;;;;;9.87;6.47;;;18.50;99.90;;;;;;4954066;28;20198;-78
2023/08/30 13:28:38;;;;;;;10.03;6.70;;;18.50;99.90;;;;;;4954833;28;20190;-79
2023/08/30 13:31:09;;;;;;;11.10;7.13;;;18.50;99.90;;;;;;4954742;28;20226;-79
2023/08/30 13:33:37;;;;;;;10.20;7.23;;;18.50;99.90;;;;;;4954190;28;20194;-80
2023/08/30 13:36:08;;;;;;;11.03;6.70;;;18.50;99.90;;;;;;4954232;28;20214;-78
2023/08/30 13:38:36;;;;;;;8.80;6.63;;;18.50;99.90;;;;;;4954809;28;20241;-79
2023/08/30 13:41:08;;;;;;;9.60;6.67;;;18.50;99.90;;;;;;4954507;28;20284;-79
2023/08/30 13:43:42;;;;;;;7.40;5.70;;;18.40;99.90;;;;;;4954748;28;20711;-77
2023/08/30 13:46:10;;;;;;;8.47;5.93;;;18.30;99.90;;;;;;4952846;29;20209;-78